sensor_id;sensor_type;location;lat;lon;timestamp;temperature;humidity
13052;DHT22;6592;47.484;9.726;2022-12-16T00:00:16;2.70;99.90
13052;DHT22;6592;47.484;9.726;2022-12-16T00:02:44;2.60;99.90
13052;DHT22;6592;47.484;9.726;2022-12-16T00:05:13;2.70;99.90
13052;DHT22;6592;47.484;9.726;2022-12-16T00:07:41;2.70;99.90
13052;DHT22;6592;47.484;9.726;2022-12-16T00:10:09;2.70;99.90
13052;DHT22;6592;47.484;9.726;2022-12-16T00:12:38;2.60;99.90
13052;DHT22;6592;47.484;9.726;2022-12-16T00:15:06;2.60;99.90
13052;DHT22;6592;47.484;9.726;2022-12-16T00:17:36;2.60;99.90
13052;DHT22;6592;47.484;9.726;2022-12-16T00:20:06;2.70;99.90
13052;DHT22;6592;47.484;9.726;2022-12-16T00:22:35;2.60;99.90
13052;DHT22;6592;47.484;9.726;2022-12-16T00:25:04;2.60;99.90
13052;DHT22;6592;47.484;9.726;2022-12-16T00:27:32;2.70;99.90
13052;DHT22;6592;47.484;9.726;2022-12-16T00:30:01;2.70;99.90
13052;DHT22;6592;47.484;9.726;2022-12-16T00:32:29;2.60;99.90
13052;DHT22;6592;47.484;9.726;2022-12-16T00:34:59;2.60;99.90
13052;DHT22;6592;47.484;9.726;2022-12-16T00:37:27;2.60;99.90
13052;DHT22;6592;47.484;9.726;2022-12-16T00:39:55;2.60;99.90
13052;DHT22;6592;47.484;9.726;2022-12-16T00:42:23;2.60;99.90
13052;DHT22;6592;47.484;9.726;2022-12-16T00:44:52;2.60;99.90
13052;DHT22;6592;47.484;9.726;2022-12-16T00:47:20;2.60;99.90
13052;DHT22;6592;47.484;9.726;2022-12-16T00:49:48;2.60;99.90
13052;DHT22;6592;47.484;9.726;2022-12-16T00:52:18;2.60;99.90
13052;DHT22;6592;47.484;9.726;2022-12-16T00:54:46;2.60;99.90
13052;DHT22;6592;47.484;9.726;2022-12-16T00:57:15;2.60;99.90
13052;DHT22;6592;47.484;9.726;2022-12-16T00:59:43;2.70;99.90
13052;DHT22;6592;47.484;9.726;2022-12-16T01:02:11;2.70;99.90
13052;DHT22;6592;47.484;9.726;2022-12-16T01:04:40;2.70;99.90
13052;DHT22;6592;47.484;9.726;2022-12-16T01:07:08;2.70;99.90
13052;DHT22;6592;47.484;9.726;2022-12-16T01:09:38;2.70;99.90
13052;DHT22;6592;47.484;9.726;2022-12-16T01:12:06;2.60;99.90
13052;DHT22;6592;47.484;9.726;2022-12-16T01:14:34;2.60;99.90
13052;DHT22;6592;47.484;9.726;2022-12-16T01:17:03;2.60;99.90
13052;DHT22;6592;47.484;9.726;2022-12-16T01:19:31;2.70;99.90
13052;DHT22;6592;47.484;9.726;2022-12-16T01:21:59;2.70;99.90
13052;DHT22;6592;47.484;9.726;2022-12-16T01:24:27;2.80;99.90
13052;DHT22;6592;47.484;9.726;2022-12-16T01:26:57;2.80;99.90
13052;DHT22;6592;47.484;9.726;2022-12-16T01:29:25;2.80;99.90
13052;DHT22;6592;47.484;9.726;2022-12-16T01:31:53;2.70;99.90
13052;DHT22;6592;47.484;9.726;2022-12-16T01:34:22;2.70;99.90
13052;DHT22;6592;47.484;9.726;2022-12-16T01:36:50;2.70;99.90
13052;DHT22;6592;47.484;9.726;2022-12-16T01:39:19;2.70;99.90
13052;DHT22;6592;47.484;9.726;2022-12-16T01:41:47;2.60;99.90
13052;DHT22;6592;47.484;9.726;2022-12-16T01:44:19;2.60;99.90
13052;DHT22;6592;47.484;9.726;2022-12-16T01:46:49;2.60;99.90
13052;DHT22;6592;47.484;9.726;2022-12-16T01:49:22;2.60;99.90
13052;DHT22;6592;47.484;9.726;2022-12-16T01:51:52;2.60;99.90
13052;DHT22;6592;47.484;9.726;2022-12-16T01:54:25;2.60;99.90
13052;DHT22;6592;47.484;9.726;2022-12-16T01:56:59;2.60;99.90
13052;DHT22;6592;47.484;9.726;2022-12-16T01:59:30;2.60;99.90
13052;DHT22;6592;47.484;9.726;2022-12-16T02:02:01;2.60;99.90
13052;DHT22;6592;47.484;9.726;2022-12-16T02:04:30;2.60;99.90
13052;DHT22;6592;47.484;9.726;2022-12-16T02:06:59;2.60;99.90
13052;DHT22;6592;47.484;9.726;2022-12-16T02:09:28;2.50;99.90
13052;DHT22;6592;47.484;9.726;2022-12-16T02:12:09;2.40;99.90
13052;DHT22;6592;47.484;9.726;2022-12-16T02:17:45;2.50;99.90
13052;DHT22;6592;47.484;9.726;2022-12-16T02:23:41;2.40;99.90
13052;DHT22;6592;47.484;9.726;2022-12-16T02:26:40;2.40;99.90
13052;DHT22;6592;47.484;9.726;2022-12-16T02:29:44;2.40;99.90
13052;DHT22;6592;47.484;9.726;2022-12-16T02:32:24;2.40;99.90
13052;DHT22;6592;47.484;9.726;2022-12-16T02:35:01;2.50;99.90
13052;DHT22;6592;47.484;9.726;2022-12-16T02:37:36;2.50;99.90
13052;DHT22;6592;47.484;9.726;2022-12-16T02:40:10;2.40;99.90
13052;DHT22;6592;47.484;9.726;2022-12-16T02:42:47;2.30;99.90
13052;DHT22;6592;47.484;9.726;2022-12-16T02:45:20;2.40;99.90
13052;DHT22;6592;47.484;9.726;2022-12-16T02:47:51;2.40;99.90
13052;DHT22;6592;47.484;9.726;2022-12-16T02:50:21;2.40;99.90
13052;DHT22;6592;47.484;9.726;2022-12-16T02:52:52;2.40;99.90
13052;DHT22;6592;47.484;9.726;2022-12-16T02:55:21;2.40;99.90
13052;DHT22;6592;47.484;9.726;2022-12-16T02:58:09;2.40;99.90
13052;DHT22;6592;47.484;9.726;2022-12-16T03:00:50;2.40;99.90
13052;DHT22;6592;47.484;9.726;2022-12-16T03:03:31;2.40;99.90
13052;DHT22;6592;47.484;9.726;2022-12-16T03:06:03;2.40;99.90
13052;DHT22;6592;47.484;9.726;2022-12-16T03:08:34;2.40;99.90
13052;DHT22;6592;47.484;9.726;2022-12-16T03:11:05;2.40;99.90
13052;DHT22;6592;47.484;9.726;2022-12-16T03:13:37;2.40;99.90
13052;DHT22;6592;47.484;9.726;2022-12-16T03:16:08;2.30;99.90
13052;DHT22;6592;47.484;9.726;2022-12-16T03:18:41;2.30;99.90
13052;DHT22;6592;47.484;9.726;2022-12-16T03:21:12;2.30;99.90
13052;DHT22;6592;47.484;9.726;2022-12-16T03:23:45;2.40;99.90
13052;DHT22;6592;47.484;9.726;2022-12-16T03:26:19;2.40;99.90
13052;DHT22;6592;47.484;9.726;2022-12-16T03:28:53;2.40;99.90
13052;DHT22;6592;47.484;9.726;2022-12-16T03:31:29;2.30;99.90
13052;DHT22;6592;47.484;9.726;2022-12-16T03:34:06;2.40;99.90
13052;DHT22;6592;47.484;9.726;2022-12-16T03:36:37;2.30;99.90
13052;DHT22;6592;47.484;9.726;2022-12-16T03:39:07;2.30;99.90
13052;DHT22;6592;47.484;9.726;2022-12-16T03:41:36;2.60;99.90
13052;DHT22;6592;47.484;9.726;2022-12-16T03:44:06;2.30;99.90
13052;DHT22;6592;47.484;9.726;2022-12-16T03:46:35;2.30;99.90
13052;DHT22;6592;47.484;9.726;2022-12-16T03:49:05;2.30;99.90
13052;DHT22;6592;47.484;9.726;2022-12-16T03:51:33;2.30;99.90
13052;DHT22;6592;47.484;9.726;2022-12-16T03:54:01;2.30;99.90
13052;DHT22;6592;47.484;9.726;2022-12-16T03:56:30;2.20;99.90
13052;DHT22;6592;47.484;9.726;2022-12-16T03:58:58;2.20;99.90
13052;DHT22;6592;47.484;9.726;2022-12-16T04:01:26;2.30;99.90
13052;DHT22;6592;47.484;9.726;2022-12-16T04:03:54;2.20;99.90
13052;DHT22;6592;47.484;9.726;2022-12-16T04:06:24;2.20;99.90
13052;DHT22;6592;47.484;9.726;2022-12-16T04:08:52;2.20;99.90
13052;DHT22;6592;47.484;9.726;2022-12-16T04:11:21;2.10;99.90
13052;DHT22;6592;47.484;9.726;2022-12-16T04:14:06;2.10;99.90
13052;DHT22;6592;47.484;9.726;2022-12-16T04:16:52;2.20;99.90
13052;DHT22;6592;47.484;9.726;2022-12-16T04:19:38;2.20;99.90
13052;DHT22;6592;47.484;9.726;2022-12-16T04:22:29;2.30;99.90
13052;DHT22;6592;47.484;9.726;2022-12-16T04:25:18;2.30;99.90
13052;DHT22;6592;47.484;9.726;2022-12-16T04:27:47;2.20;99.90
13052;DHT22;6592;47.484;9.726;2022-12-16T04:30:17;2.20;99.90
13052;DHT22;6592;47.484;9.726;2022-12-16T04:32:45;2.10;99.90
13052;DHT22;6592;47.484;9.726;2022-12-16T04:35:33;2.20;99.90
13052;DHT22;6592;47.484;9.726;2022-12-16T04:38:20;2.10;99.90
13052;DHT22;6592;47.484;9.726;2022-12-16T04:41:06;2.10;99.90
13052;DHT22;6592;47.484;9.726;2022-12-16T04:43:51;2.10;99.90
13052;DHT22;6592;47.484;9.726;2022-12-16T04:46:37;2.00;99.90
13052;DHT22;6592;47.484;9.726;2022-12-16T04:49:23;2.00;99.90
13052;DHT22;6592;47.484;9.726;2022-12-16T04:52:08;2.00;99.90
13052;DHT22;6592;47.484;9.726;2022-12-16T04:54:56;1.90;99.90
13052;DHT22;6592;47.484;9.726;2022-12-16T04:57:43;2.00;99.90
13052;DHT22;6592;47.484;9.726;2022-12-16T05:00:29;2.00;99.90
13052;DHT22;6592;47.484;9.726;2022-12-16T05:03:14;2.00;99.90
13052;DHT22;6592;47.484;9.726;2022-12-16T05:05:57;2.00;99.90
13052;DHT22;6592;47.484;9.726;2022-12-16T05:08:42;2.00;99.90
13052;DHT22;6592;47.484;9.726;2022-12-16T05:11:29;2.00;99.90
13052;DHT22;6592;47.484;9.726;2022-12-16T05:14:15;2.00;99.90
13052;DHT22;6592;47.484;9.726;2022-12-16T05:17:00;2.00;99.90
13052;DHT22;6592;47.484;9.726;2022-12-16T05:19:46;2.00;99.90
13052;DHT22;6592;47.484;9.726;2022-12-16T05:22:31;2.00;99.90
13052;DHT22;6592;47.484;9.726;2022-12-16T05:25:17;2.10;99.90
13052;DHT22;6592;47.484;9.726;2022-12-16T05:28:04;2.10;99.90
13052;DHT22;6592;47.484;9.726;2022-12-16T05:30:50;2.10;99.90
13052;DHT22;6592;47.484;9.726;2022-12-16T05:33:36;2.10;99.90
13052;DHT22;6592;47.484;9.726;2022-12-16T05:36:22;2.10;99.90
13052;DHT22;6592;47.484;9.726;2022-12-16T05:39:07;2.00;99.90
13052;DHT22;6592;47.484;9.726;2022-12-16T05:41:53;2.00;99.90
13052;DHT22;6592;47.484;9.726;2022-12-16T05:44:40;2.00;99.90
13052;DHT22;6592;47.484;9.726;2022-12-16T05:47:27;2.00;99.90
13052;DHT22;6592;47.484;9.726;2022-12-16T05:50:12;2.00;99.90
13052;DHT22;6592;47.484;9.726;2022-12-16T05:52:58;2.10;99.90
13052;DHT22;6592;47.484;9.726;2022-12-16T05:55:44;2.00;99.90
13052;DHT22;6592;47.484;9.726;2022-12-16T05:58:29;2.10;99.90
13052;DHT22;6592;47.484;9.726;2022-12-16T06:01:17;2.10;99.90
13052;DHT22;6592;47.484;9.726;2022-12-16T06:04:02;2.00;99.90
13052;DHT22;6592;47.484;9.726;2022-12-16T06:06:48;2.10;99.90
13052;DHT22;6592;47.484;9.726;2022-12-16T06:09:34;2.10;99.90
13052;DHT22;6592;47.484;9.726;2022-12-16T06:12:23;2.10;99.90
13052;DHT22;6592;47.484;9.726;2022-12-16T06:15:09;2.10;99.90
13052;DHT22;6592;47.484;9.726;2022-12-16T06:17:56;2.10;99.90
13052;DHT22;6592;47.484;9.726;2022-12-16T06:20:42;2.10;99.90
13052;DHT22;6592;47.484;9.726;2022-12-16T06:23:30;2.10;99.90
13052;DHT22;6592;47.484;9.726;2022-12-16T06:26:16;2.20;99.90
13052;DHT22;6592;47.484;9.726;2022-12-16T06:29:02;2.20;99.90
13052;DHT22;6592;47.484;9.726;2022-12-16T06:31:47;2.20;99.90
13052;DHT22;6592;47.484;9.726;2022-12-16T06:34:34;2.20;99.90
13052;DHT22;6592;47.484;9.726;2022-12-16T06:37:20;2.20;99.90
13052;DHT22;6592;47.484;9.726;2022-12-16T06:40:07;2.20;99.90
13052;DHT22;6592;47.484;9.726;2022-12-16T06:42:53;2.20;99.90
13052;DHT22;6592;47.484;9.726;2022-12-16T06:45:38;2.20;99.90
13052;DHT22;6592;47.484;9.726;2022-12-16T06:48:24;2.20;99.90
13052;DHT22;6592;47.484;9.726;2022-12-16T06:51:11;2.20;99.90
13052;DHT22;6592;47.484;9.726;2022-12-16T06:53:57;2.20;99.90
13052;DHT22;6592;47.484;9.726;2022-12-16T06:56:42;2.20;99.90
13052;DHT22;6592;47.484;9.726;2022-12-16T06:59:29;2.20;99.90
13052;DHT22;6592;47.484;9.726;2022-12-16T07:02:23;2.20;99.90
13052;DHT22;6592;47.484;9.726;2022-12-16T07:05:09;2.20;99.90
13052;DHT22;6592;47.484;9.726;2022-12-16T07:07:56;2.20;99.90
13052;DHT22;6592;47.484;9.726;2022-12-16T07:10:41;2.10;99.90
13052;DHT22;6592;47.484;9.726;2022-12-16T07:13:42;2.10;99.90
13052;DHT22;6592;47.484;9.726;2022-12-16T07:16:27;2.10;99.90
13052;DHT22;6592;47.484;9.726;2022-12-16T07:19:15;2.10;99.90
13052;DHT22;6592;47.484;9.726;2022-12-16T07:22:00;2.10;99.90
13052;DHT22;6592;47.484;9.726;2022-12-16T07:24:47;2.20;99.90
13052;DHT22;6592;47.484;9.726;2022-12-16T07:27:33;2.20;99.90
13052;DHT22;6592;47.484;9.726;2022-12-16T07:30:19;2.10;99.90
13052;DHT22;6592;47.484;9.726;2022-12-16T07:33:04;2.20;99.90
13052;DHT22;6592;47.484;9.726;2022-12-16T07:35:49;2.10;99.90
13052;DHT22;6592;47.484;9.726;2022-12-16T07:38:35;2.10;99.90
13052;DHT22;6592;47.484;9.726;2022-12-16T07:41:22;2.10;99.90
13052;DHT22;6592;47.484;9.726;2022-12-16T07:44:07;2.10;99.90
13052;DHT22;6592;47.484;9.726;2022-12-16T07:46:53;2.10;99.90
13052;DHT22;6592;47.484;9.726;2022-12-16T07:49:39;2.20;99.90
13052;DHT22;6592;47.484;9.726;2022-12-16T07:52:39;2.20;99.90
13052;DHT22;6592;47.484;9.726;2022-12-16T07:55:24;2.20;99.90
13052;DHT22;6592;47.484;9.726;2022-12-16T07:58:11;2.20;99.90
13052;DHT22;6592;47.484;9.726;2022-12-16T08:00:57;2.20;99.90
13052;DHT22;6592;47.484;9.726;2022-12-16T08:03:42;2.10;99.90
13052;DHT22;6592;47.484;9.726;2022-12-16T08:06:28;2.20;99.90
13052;DHT22;6592;47.484;9.726;2022-12-16T08:09:14;2.20;99.90
13052;DHT22;6592;47.484;9.726;2022-12-16T08:12:00;2.20;99.90
13052;DHT22;6592;47.484;9.726;2022-12-16T08:14:48;2.20;99.90
13052;DHT22;6592;47.484;9.726;2022-12-16T08:17:34;2.20;99.90
13052;DHT22;6592;47.484;9.726;2022-12-16T08:20:21;2.30;99.90
13052;DHT22;6592;47.484;9.726;2022-12-16T08:23:07;2.40;99.90
13052;DHT22;6592;47.484;9.726;2022-12-16T08:25:52;2.40;99.90
13052;DHT22;6592;47.484;9.726;2022-12-16T08:28:37;2.40;99.90
13052;DHT22;6592;47.484;9.726;2022-12-16T08:31:44;2.50;99.90
13052;DHT22;6592;47.484;9.726;2022-12-16T08:34:30;2.60;99.90
13052;DHT22;6592;47.484;9.726;2022-12-16T08:37:15;2.60;99.90
13052;DHT22;6592;47.484;9.726;2022-12-16T08:40:01;2.70;99.90
13052;DHT22;6592;47.484;9.726;2022-12-16T08:43:03;2.70;99.90
13052;DHT22;6592;47.484;9.726;2022-12-16T08:45:52;2.70;99.90
13052;DHT22;6592;47.484;9.726;2022-12-16T08:48:40;2.70;99.90
13052;DHT22;6592;47.484;9.726;2022-12-16T08:51:25;2.80;99.90
13052;DHT22;6592;47.484;9.726;2022-12-16T08:54:11;2.80;99.90
13052;DHT22;6592;47.484;9.726;2022-12-16T08:56:57;2.80;99.90
13052;DHT22;6592;47.484;9.726;2022-12-16T08:59:44;2.70;99.90
13052;DHT22;6592;47.484;9.726;2022-12-16T09:02:29;2.70;99.90
13052;DHT22;6592;47.484;9.726;2022-12-16T09:05:18;2.80;99.90
13052;DHT22;6592;47.484;9.726;2022-12-16T09:08:04;2.80;99.90
13052;DHT22;6592;47.484;9.726;2022-12-16T09:10:50;2.80;99.90
13052;DHT22;6592;47.484;9.726;2022-12-16T09:13:35;2.80;99.90
13052;DHT22;6592;47.484;9.726;2022-12-16T09:16:21;2.90;99.90
13052;DHT22;6592;47.484;9.726;2022-12-16T09:19:08;2.90;99.90
13052;DHT22;6592;47.484;9.726;2022-12-16T09:21:56;2.90;99.90
13052;DHT22;6592;47.484;9.726;2022-12-16T09:24:41;3.00;99.90
13052;DHT22;6592;47.484;9.726;2022-12-16T09:27:27;3.00;99.90
13052;DHT22;6592;47.484;9.726;2022-12-16T09:30:12;3.10;99.90
13052;DHT22;6592;47.484;9.726;2022-12-16T09:33:00;3.20;99.90
13052;DHT22;6592;47.484;9.726;2022-12-16T09:35:46;3.30;99.90
13052;DHT22;6592;47.484;9.726;2022-12-16T09:38:33;3.20;99.90
13052;DHT22;6592;47.484;9.726;2022-12-16T09:41:27;3.40;99.90
13052;DHT22;6592;47.484;9.726;2022-12-16T09:44:21;3.40;99.90
13052;DHT22;6592;47.484;9.726;2022-12-16T09:47:16;3.40;99.90
13052;DHT22;6592;47.484;9.726;2022-12-16T09:50:15;3.30;99.90
13052;DHT22;6592;47.484;9.726;2022-12-16T09:53:03;3.50;99.90
13052;DHT22;6592;47.484;9.726;2022-12-16T09:55:51;3.50;99.90
13052;DHT22;6592;47.484;9.726;2022-12-16T09:58:40;3.70;99.90
13052;DHT22;6592;47.484;9.726;2022-12-16T10:01:31;3.70;99.90
13052;DHT22;6592;47.484;9.726;2022-12-16T10:04:17;3.60;99.90
13052;DHT22;6592;47.484;9.726;2022-12-16T10:07:03;3.60;99.90
13052;DHT22;6592;47.484;9.726;2022-12-16T10:09:58;3.60;99.90
13052;DHT22;6592;47.484;9.726;2022-12-16T10:12:53;3.50;99.90
13052;DHT22;6592;47.484;9.726;2022-12-16T10:15:48;3.50;99.90
13052;DHT22;6592;47.484;9.726;2022-12-16T10:18:43;3.60;99.90
13052;DHT22;6592;47.484;9.726;2022-12-16T10:21:35;3.70;99.90
13052;DHT22;6592;47.484;9.726;2022-12-16T10:24:31;3.70;99.90
13052;DHT22;6592;47.484;9.726;2022-12-16T10:27:24;3.80;99.90
13052;DHT22;6592;47.484;9.726;2022-12-16T10:30:15;3.90;99.90
13052;DHT22;6592;47.484;9.726;2022-12-16T10:33:01;4.00;99.90
13052;DHT22;6592;47.484;9.726;2022-12-16T10:35:50;4.00;99.90
13052;DHT22;6592;47.484;9.726;2022-12-16T10:38:39;4.00;99.90
13052;DHT22;6592;47.484;9.726;2022-12-16T10:41:28;4.00;99.90
13052;DHT22;6592;47.484;9.726;2022-12-16T10:44:22;4.10;99.90
13052;DHT22;6592;47.484;9.726;2022-12-16T10:47:10;4.10;99.90
13052;DHT22;6592;47.484;9.726;2022-12-16T10:49:57;4.10;99.90
13052;DHT22;6592;47.484;9.726;2022-12-16T10:52:49;4.20;99.90
13052;DHT22;6592;47.484;9.726;2022-12-16T10:55:44;4.20;99.90
13052;DHT22;6592;47.484;9.726;2022-12-16T10:58:37;4.20;99.90
13052;DHT22;6592;47.484;9.726;2022-12-16T11:01:25;4.40;99.90
13052;DHT22;6592;47.484;9.726;2022-12-16T11:04:33;4.50;99.90
13052;DHT22;6592;47.484;9.726;2022-12-16T11:07:31;4.60;99.90
13052;DHT22;6592;47.484;9.726;2022-12-16T11:10:32;4.70;99.90
13052;DHT22;6592;47.484;9.726;2022-12-16T11:13:21;4.80;99.90
13052;DHT22;6592;47.484;9.726;2022-12-16T11:16:19;4.80;99.90
13052;DHT22;6592;47.484;9.726;2022-12-16T11:19:18;4.80;99.90
13052;DHT22;6592;47.484;9.726;2022-12-16T11:22:09;4.80;99.90
13052;DHT22;6592;47.484;9.726;2022-12-16T11:25:04;4.80;99.90
13052;DHT22;6592;47.484;9.726;2022-12-16T11:27:49;4.80;99.90
13052;DHT22;6592;47.484;9.726;2022-12-16T11:30:52;4.70;99.90
13052;DHT22;6592;47.484;9.726;2022-12-16T11:33:39;4.70;99.90
13052;DHT22;6592;47.484;9.726;2022-12-16T11:36:25;4.50;99.90
13052;DHT22;6592;47.484;9.726;2022-12-16T11:39:14;4.50;99.90
13052;DHT22;6592;47.484;9.726;2022-12-16T11:42:01;4.30;99.90
13052;DHT22;6592;47.484;9.726;2022-12-16T11:44:50;4.20;99.90
13052;DHT22;6592;47.484;9.726;2022-12-16T11:47:38;4.20;99.90
13052;DHT22;6592;47.484;9.726;2022-12-16T11:50:27;4.10;99.90
13052;DHT22;6592;47.484;9.726;2022-12-16T11:53:24;4.10;99.90
13052;DHT22;6592;47.484;9.726;2022-12-16T11:56:21;4.20;99.90
13052;DHT22;6592;47.484;9.726;2022-12-16T11:59:14;4.20;99.90
13052;DHT22;6592;47.484;9.726;2022-12-16T12:02:03;4.20;99.90
13052;DHT22;6592;47.484;9.726;2022-12-16T12:04:56;4.30;99.90
13052;DHT22;6592;47.484;9.726;2022-12-16T12:07:48;4.30;99.90
13052;DHT22;6592;47.484;9.726;2022-12-16T12:10:53;4.30;99.90
13052;DHT22;6592;47.484;9.726;2022-12-16T12:13:51;4.30;99.90
13052;DHT22;6592;47.484;9.726;2022-12-16T12:16:53;4.40;99.90
13052;DHT22;6592;47.484;9.726;2022-12-16T12:19:49;4.30;99.90
13052;DHT22;6592;47.484;9.726;2022-12-16T12:22:38;4.40;99.90
13052;DHT22;6592;47.484;9.726;2022-12-16T12:25:30;4.30;99.90
13052;DHT22;6592;47.484;9.726;2022-12-16T12:28:29;4.30;99.90
13052;DHT22;6592;47.484;9.726;2022-12-16T12:31:27;4.40;99.90
13052;DHT22;6592;47.484;9.726;2022-12-16T12:34:21;4.40;99.90
13052;DHT22;6592;47.484;9.726;2022-12-16T12:37:18;4.40;99.90
13052;DHT22;6592;47.484;9.726;2022-12-16T12:40:19;4.40;99.90
13052;DHT22;6592;47.484;9.726;2022-12-16T12:43:17;4.40;99.90
13052;DHT22;6592;47.484;9.726;2022-12-16T12:46:13;4.30;99.90
13052;DHT22;6592;47.484;9.726;2022-12-16T12:49:09;4.30;99.90
13052;DHT22;6592;47.484;9.726;2022-12-16T12:52:01;4.30;99.90
13052;DHT22;6592;47.484;9.726;2022-12-16T12:54:52;4.30;99.90
13052;DHT22;6592;47.484;9.726;2022-12-16T12:57:40;4.20;99.90
13052;DHT22;6592;47.484;9.726;2022-12-16T13:00:30;4.20;99.90
13052;DHT22;6592;47.484;9.726;2022-12-16T13:03:28;4.20;99.90
13052;DHT22;6592;47.484;9.726;2022-12-16T13:06:18;4.30;99.90
13052;DHT22;6592;47.484;9.726;2022-12-16T13:09:28;4.30;99.90
13052;DHT22;6592;47.484;9.726;2022-12-16T13:12:26;4.30;99.90
13052;DHT22;6592;47.484;9.726;2022-12-16T13:15:33;4.30;99.90
13052;DHT22;6592;47.484;9.726;2022-12-16T13:18:27;4.20;99.90
13052;DHT22;6592;47.484;9.726;2022-12-16T13:21:43;4.10;99.90
13052;DHT22;6592;47.484;9.726;2022-12-16T13:24:44;4.10;99.90
13052;DHT22;6592;47.484;9.726;2022-12-16T13:27:49;4.00;99.90
13052;DHT22;6592;47.484;9.726;2022-12-16T13:30:36;4.00;99.90
13052;DHT22;6592;47.484;9.726;2022-12-16T13:33:27;3.80;99.90
13052;DHT22;6592;47.484;9.726;2022-12-16T13:36:14;3.90;99.90
13052;DHT22;6592;47.484;9.726;2022-12-16T13:39:18;3.80;99.90
13052;DHT22;6592;47.484;9.726;2022-12-16T13:42:05;3.80;99.90
13052;DHT22;6592;47.484;9.726;2022-12-16T13:45:22;3.70;99.90
13052;DHT22;6592;47.484;9.726;2022-12-16T13:48:29;3.60;99.90
13052;DHT22;6592;47.484;9.726;2022-12-16T13:57:53;3.60;99.90
13052;DHT22;6592;47.484;9.726;2022-12-16T14:00:42;3.60;99.90
13052;DHT22;6592;47.484;9.726;2022-12-16T14:03:39;3.60;99.90
13052;DHT22;6592;47.484;9.726;2022-12-16T14:06:27;3.50;99.90
13052;DHT22;6592;47.484;9.726;2022-12-16T14:09:23;3.50;99.90
13052;DHT22;6592;47.484;9.726;2022-12-16T14:12:31;3.50;99.90
13052;DHT22;6592;47.484;9.726;2022-12-16T14:15:26;3.40;99.90
13052;DHT22;6592;47.484;9.726;2022-12-16T14:18:23;3.40;99.90
13052;DHT22;6592;47.484;9.726;2022-12-16T14:21:15;3.30;99.90
13052;DHT22;6592;47.484;9.726;2022-12-16T14:24:09;3.20;99.90
13052;DHT22;6592;47.484;9.726;2022-12-16T14:26:57;3.20;99.90
13052;DHT22;6592;47.484;9.726;2022-12-16T14:29:50;3.10;99.90
13052;DHT22;6592;47.484;9.726;2022-12-16T14:32:36;3.10;99.90
13052;DHT22;6592;47.484;9.726;2022-12-16T14:35:23;3.10;99.90
13052;DHT22;6592;47.484;9.726;2022-12-16T14:38:20;3.00;99.90
13052;DHT22;6592;47.484;9.726;2022-12-16T14:41:10;3.00;99.90
13052;DHT22;6592;47.484;9.726;2022-12-16T14:43:56;3.00;99.90
13052;DHT22;6592;47.484;9.726;2022-12-16T14:46:48;3.00;99.90
13052;DHT22;6592;47.484;9.726;2022-12-16T14:49:34;3.00;99.90
13052;DHT22;6592;47.484;9.726;2022-12-16T14:52:19;2.90;99.90
13052;DHT22;6592;47.484;9.726;2022-12-16T14:55:14;2.90;99.90
13052;DHT22;6592;47.484;9.726;2022-12-16T14:58:09;2.90;99.90
13052;DHT22;6592;47.484;9.726;2022-12-16T15:00:57;2.90;99.90
13052;DHT22;6592;47.484;9.726;2022-12-16T15:03:46;2.90;99.90
13052;DHT22;6592;47.484;9.726;2022-12-16T15:06:35;2.80;99.90
13052;DHT22;6592;47.484;9.726;2022-12-16T15:09:39;2.80;99.90
13052;DHT22;6592;47.484;9.726;2022-12-16T15:12:27;2.70;99.90
13052;DHT22;6592;47.484;9.726;2022-12-16T15:15:17;2.60;99.90
13052;DHT22;6592;47.484;9.726;2022-12-16T15:18:04;2.60;99.90
13052;DHT22;6592;47.484;9.726;2022-12-16T15:20:53;2.60;99.90
13052;DHT22;6592;47.484;9.726;2022-12-16T15:23:40;2.60;99.90
13052;DHT22;6592;47.484;9.726;2022-12-16T15:26:28;2.50;99.90
13052;DHT22;6592;47.484;9.726;2022-12-16T15:29:27;2.50;99.90
13052;DHT22;6592;47.484;9.726;2022-12-16T15:32:28;2.50;99.90
13052;DHT22;6592;47.484;9.726;2022-12-16T15:35:29;2.40;99.90
13052;DHT22;6592;47.484;9.726;2022-12-16T15:38:27;2.40;99.90
13052;DHT22;6592;47.484;9.726;2022-12-16T15:41:21;2.40;99.90
13052;DHT22;6592;47.484;9.726;2022-12-16T15:44:15;2.40;99.90
13052;DHT22;6592;47.484;9.726;2022-12-16T15:47:01;2.40;99.90
13052;DHT22;6592;47.484;9.726;2022-12-16T15:49:47;2.40;99.90
13052;DHT22;6592;47.484;9.726;2022-12-16T15:52:36;2.40;99.90
13052;DHT22;6592;47.484;9.726;2022-12-16T15:55:31;2.30;99.90
13052;DHT22;6592;47.484;9.726;2022-12-16T15:58:23;2.30;99.90
13052;DHT22;6592;47.484;9.726;2022-12-16T16:01:12;2.30;99.90
13052;DHT22;6592;47.484;9.726;2022-12-16T16:03:58;2.30;99.90
13052;DHT22;6592;47.484;9.726;2022-12-16T16:06:46;2.30;99.90
13052;DHT22;6592;47.484;9.726;2022-12-16T16:09:36;2.20;99.90
13052;DHT22;6592;47.484;9.726;2022-12-16T16:12:24;2.10;99.90
13052;DHT22;6592;47.484;9.726;2022-12-16T16:15:12;2.10;99.90
13052;DHT22;6592;47.484;9.726;2022-12-16T16:17:59;2.10;99.90
13052;DHT22;6592;47.484;9.726;2022-12-16T16:20:45;2.10;99.90
13052;DHT22;6592;47.484;9.726;2022-12-16T16:23:31;2.10;99.90
13052;DHT22;6592;47.484;9.726;2022-12-16T16:26:20;2.10;99.90
13052;DHT22;6592;47.484;9.726;2022-12-16T16:29:08;2.00;99.90
13052;DHT22;6592;47.484;9.726;2022-12-16T16:31:54;2.00;99.90
13052;DHT22;6592;47.484;9.726;2022-12-16T16:34:42;2.00;99.90
13052;DHT22;6592;47.484;9.726;2022-12-16T16:37:28;2.00;99.90
13052;DHT22;6592;47.484;9.726;2022-12-16T16:40:17;2.00;99.90
13052;DHT22;6592;47.484;9.726;2022-12-16T16:43:03;1.90;99.90
13052;DHT22;6592;47.484;9.726;2022-12-16T16:45:53;1.90;99.90
13052;DHT22;6592;47.484;9.726;2022-12-16T16:48:39;1.90;99.90
13052;DHT22;6592;47.484;9.726;2022-12-16T16:51:25;1.90;99.90
13052;DHT22;6592;47.484;9.726;2022-12-16T16:54:11;1.80;99.90
13052;DHT22;6592;47.484;9.726;2022-12-16T16:56:59;1.80;99.90
13052;DHT22;6592;47.484;9.726;2022-12-16T16:59:45;1.80;99.90
13052;DHT22;6592;47.484;9.726;2022-12-16T17:02:32;1.70;99.90
13052;DHT22;6592;47.484;9.726;2022-12-16T17:05:18;1.60;99.90
13052;DHT22;6592;47.484;9.726;2022-12-16T17:08:04;1.60;99.90
13052;DHT22;6592;47.484;9.726;2022-12-16T17:10:49;1.60;99.90
13052;DHT22;6592;47.484;9.726;2022-12-16T17:13:35;1.60;99.90
13052;DHT22;6592;47.484;9.726;2022-12-16T17:16:20;1.50;99.90
13052;DHT22;6592;47.484;9.726;2022-12-16T17:19:07;1.50;99.90
13052;DHT22;6592;47.484;9.726;2022-12-16T17:21:49;1.50;99.90
13052;DHT22;6592;47.484;9.726;2022-12-16T17:24:35;1.60;99.90
13052;DHT22;6592;47.484;9.726;2022-12-16T17:27:22;1.60;99.90
13052;DHT22;6592;47.484;9.726;2022-12-16T17:30:14;1.50;99.90
13052;DHT22;6592;47.484;9.726;2022-12-16T17:33:00;1.40;99.90
13052;DHT22;6592;47.484;9.726;2022-12-16T17:35:49;1.40;99.90
13052;DHT22;6592;47.484;9.726;2022-12-16T17:38:38;1.40;99.90
13052;DHT22;6592;47.484;9.726;2022-12-16T17:41:25;1.30;99.90
13052;DHT22;6592;47.484;9.726;2022-12-16T17:44:11;1.30;99.90
13052;DHT22;6592;47.484;9.726;2022-12-16T17:46:57;1.30;99.90
13052;DHT22;6592;47.484;9.726;2022-12-16T17:49:43;1.20;99.90
13052;DHT22;6592;47.484;9.726;2022-12-16T17:52:30;1.20;99.90
13052;DHT22;6592;47.484;9.726;2022-12-16T17:55:16;1.10;99.90
13052;DHT22;6592;47.484;9.726;2022-12-16T17:58:01;1.10;99.90
13052;DHT22;6592;47.484;9.726;2022-12-16T18:00:47;1.10;99.90
13052;DHT22;6592;47.484;9.726;2022-12-16T18:03:32;1.20;99.90
13052;DHT22;6592;47.484;9.726;2022-12-16T18:06:19;1.10;99.90
13052;DHT22;6592;47.484;9.726;2022-12-16T18:09:06;1.20;99.90